sensor_id;sensor_type;location;lat;lon;timestamp;P1;durP1;ratioP1;P2;durP2;ratioP2
823;SDS011;373;49.342;8.146;2024-03-07T00:02:10;35.80;;;27.70;;
823;SDS011;373;49.342;8.146;2024-03-07T00:04:37;30.33;;;27.02;;
823;SDS011;373;49.342;8.146;2024-03-07T00:07:04;34.60;;;27.15;;
823;SDS011;373;49.342;8.146;2024-03-07T00:09:32;32.15;;;27.17;;
823;SDS011;373;49.342;8.146;2024-03-07T00:11:59;32.15;;;27.05;;
823;SDS011;373;49.342;8.146;2024-03-07T00:14:26;31.73;;;27.15;;
823;SDS011;373;49.342;8.146;2024-03-07T00:16:54;30.77;;;25.92;;
823;SDS011;373;49.342;8.146;2024-03-07T00:19:23;32.50;;;27.52;;
823;SDS011;373;49.342;8.146;2024-03-07T00:21:52;31.27;;;26.00;;
823;SDS011;373;49.342;8.146;2024-03-07T00:24:19;27.90;;;25.05;;
823;SDS011;373;49.342;8.146;2024-03-07T00:26:46;29.27;;;26.10;;
823;SDS011;373;49.342;8.146;2024-03-07T00:29:15;29.20;;;25.85;;
823;SDS011;373;49.342;8.146;2024-03-07T00:31:43;29.33;;;25.75;;
823;SDS011;373;49.342;8.146;2024-03-07T00:34:11;31.77;;;27.80;;
823;SDS011;373;49.342;8.146;2024-03-07T00:36:40;28.85;;;25.73;;
823;SDS011;373;49.342;8.146;2024-03-07T00:39:07;29.30;;;25.50;;
823;SDS011;373;49.342;8.146;2024-03-07T00:41:37;32.65;;;27.17;;
823;SDS011;373;49.342;8.146;2024-03-07T00:44:04;30.27;;;26.95;;
823;SDS011;373;49.342;8.146;2024-03-07T00:46:34;30.65;;;26.75;;
823;SDS011;373;49.342;8.146;2024-03-07T00:49:01;31.35;;;27.33;;
823;SDS011;373;49.342;8.146;2024-03-07T00:51:28;30.27;;;26.48;;
823;SDS011;373;49.342;8.146;2024-03-07T00:53:56;31.13;;;27.70;;
823;SDS011;373;49.342;8.146;2024-03-07T00:56:24;31.40;;;26.75;;
823;SDS011;373;49.342;8.146;2024-03-07T00:58:51;31.65;;;26.08;;
823;SDS011;373;49.342;8.146;2024-03-07T01:01:18;31.20;;;26.45;;
823;SDS011;373;49.342;8.146;2024-03-07T01:03:45;32.75;;;27.67;;
823;SDS011;373;49.342;8.146;2024-03-07T01:06:12;32.58;;;28.50;;
823;SDS011;373;49.342;8.146;2024-03-07T01:08:39;32.90;;;29.25;;
823;SDS011;373;49.342;8.146;2024-03-07T01:11:08;32.83;;;28.58;;
823;SDS011;373;49.342;8.146;2024-03-07T01:13:37;31.90;;;26.67;;
823;SDS011;373;49.342;8.146;2024-03-07T01:16:05;32.20;;;28.15;;
823;SDS011;373;49.342;8.146;2024-03-07T01:18:32;30.98;;;27.60;;
823;SDS011;373;49.342;8.146;2024-03-07T01:20:59;30.80;;;27.58;;
823;SDS011;373;49.342;8.146;2024-03-07T01:23:26;35.00;;;29.00;;
823;SDS011;373;49.342;8.146;2024-03-07T01:25:55;30.38;;;27.15;;
823;SDS011;373;49.342;8.146;2024-03-07T01:28:24;32.15;;;26.95;;
823;SDS011;373;49.342;8.146;2024-03-07T01:30:51;34.38;;;28.60;;
823;SDS011;373;49.342;8.146;2024-03-07T01:33:19;34.90;;;28.98;;
823;SDS011;373;49.342;8.146;2024-03-07T01:35:46;32.63;;;29.02;;
823;SDS011;373;49.342;8.146;2024-03-07T01:38:13;32.67;;;29.13;;
823;SDS011;373;49.342;8.146;2024-03-07T01:40:41;33.30;;;28.25;;
823;SDS011;373;49.342;8.146;2024-03-07T01:43:08;33.03;;;27.80;;
823;SDS011;373;49.342;8.146;2024-03-07T01:45:37;36.67;;;29.35;;
823;SDS011;373;49.342;8.146;2024-03-07T01:48:04;38.17;;;29.95;;
823;SDS011;373;49.342;8.146;2024-03-07T01:50:32;31.08;;;25.98;;
823;SDS011;373;49.342;8.146;2024-03-07T01:52:59;30.88;;;27.48;;
823;SDS011;373;49.342;8.146;2024-03-07T01:55:27;32.22;;;26.65;;
823;SDS011;373;49.342;8.146;2024-03-07T01:57:55;32.92;;;27.42;;
823;SDS011;373;49.342;8.146;2024-03-07T02:00:25;30.02;;;26.70;;
823;SDS011;373;49.342;8.146;2024-03-07T02:02:54;31.65;;;27.85;;
823;SDS011;373;49.342;8.146;2024-03-07T02:05:21;34.75;;;27.75;;
823;SDS011;373;49.342;8.146;2024-03-07T02:07:49;29.30;;;25.75;;
823;SDS011;373;49.342;8.146;2024-03-07T02:10:16;31.20;;;26.95;;
823;SDS011;373;49.342;8.146;2024-03-07T02:12:43;30.25;;;26.95;;
823;SDS011;373;49.342;8.146;2024-03-07T02:15:11;32.78;;;28.17;;
823;SDS011;373;49.342;8.146;2024-03-07T02:17:39;33.03;;;28.23;;
823;SDS011;373;49.342;8.146;2024-03-07T02:20:09;35.42;;;29.45;;
823;SDS011;373;49.342;8.146;2024-03-07T02:22:39;35.15;;;28.08;;
823;SDS011;373;49.342;8.146;2024-03-07T02:25:07;32.17;;;28.55;;
823;SDS011;373;49.342;8.146;2024-03-07T02:27:36;34.53;;;28.77;;
823;SDS011;373;49.342;8.146;2024-03-07T02:30:04;31.17;;;27.42;;
823;SDS011;373;49.342;8.146;2024-03-07T02:32:33;34.72;;;30.10;;
823;SDS011;373;49.342;8.146;2024-03-07T02:35:02;32.90;;;29.02;;
823;SDS011;373;49.342;8.146;2024-03-07T02:37:29;35.42;;;29.15;;
823;SDS011;373;49.342;8.146;2024-03-07T02:39:58;36.13;;;28.58;;
823;SDS011;373;49.342;8.146;2024-03-07T02:42:25;33.03;;;28.70;;
823;SDS011;373;49.342;8.146;2024-03-07T02:44:52;33.72;;;29.17;;
823;SDS011;373;49.342;8.146;2024-03-07T02:47:19;33.88;;;27.58;;
823;SDS011;373;49.342;8.146;2024-03-07T02:49:49;33.45;;;28.55;;
823;SDS011;373;49.342;8.146;2024-03-07T02:52:16;33.03;;;28.67;;
823;SDS011;373;49.342;8.146;2024-03-07T02:54:43;32.67;;;28.08;;
823;SDS011;373;49.342;8.146;2024-03-07T02:57:11;32.85;;;28.05;;
823;SDS011;373;49.342;8.146;2024-03-07T02:59:38;31.48;;;28.08;;
823;SDS011;373;49.342;8.146;2024-03-07T03:02:05;34.67;;;29.50;;
823;SDS011;373;49.342;8.146;2024-03-07T03:04:32;31.38;;;27.17;;
823;SDS011;373;49.342;8.146;2024-03-07T03:06:59;30.75;;;26.90;;
823;SDS011;373;49.342;8.146;2024-03-07T03:09:26;32.45;;;28.92;;
823;SDS011;373;49.342;8.146;2024-03-07T03:11:53;34.90;;;28.65;;
823;SDS011;373;49.342;8.146;2024-03-07T03:14:22;32.92;;;28.20;;
823;SDS011;373;49.342;8.146;2024-03-07T03:16:49;33.08;;;27.83;;
823;SDS011;373;49.342;8.146;2024-03-07T03:19:16;34.58;;;29.00;;
823;SDS011;373;49.342;8.146;2024-03-07T03:21:43;32.05;;;28.60;;
823;SDS011;373;49.342;8.146;2024-03-07T03:24:10;32.67;;;28.27;;
823;SDS011;373;49.342;8.146;2024-03-07T03:26:37;36.53;;;29.08;;
823;SDS011;373;49.342;8.146;2024-03-07T03:29:04;32.35;;;27.73;;
823;SDS011;373;49.342;8.146;2024-03-07T03:31:32;30.48;;;26.52;;
823;SDS011;373;49.342;8.146;2024-03-07T03:34:00;30.20;;;26.30;;
823;SDS011;373;49.342;8.146;2024-03-07T03:36:27;28.90;;;25.80;;
823;SDS011;373;49.342;8.146;2024-03-07T03:38:54;30.52;;;27.20;;
823;SDS011;373;49.342;8.146;2024-03-07T03:41:22;32.03;;;28.52;;
823;SDS011;373;49.342;8.146;2024-03-07T03:43:49;30.08;;;26.80;;
823;SDS011;373;49.342;8.146;2024-03-07T03:46:16;31.77;;;27.88;;
823;SDS011;373;49.342;8.146;2024-03-07T03:48:44;34.03;;;27.92;;
823;SDS011;373;49.342;8.146;2024-03-07T03:51:11;31.85;;;28.35;;
823;SDS011;373;49.342;8.146;2024-03-07T03:53:40;32.78;;;28.67;;
823;SDS011;373;49.342;8.146;2024-03-07T03:56:10;33.08;;;28.42;;
823;SDS011;373;49.342;8.146;2024-03-07T03:58:39;30.65;;;27.10;;
823;SDS011;373;49.342;8.146;2024-03-07T04:01:06;33.88;;;29.30;;
823;SDS011;373;49.342;8.146;2024-03-07T04:03:38;31.15;;;27.63;;
823;SDS011;373;49.342;8.146;2024-03-07T04:06:06;34.00;;;28.00;;
823;SDS011;373;49.342;8.146;2024-03-07T04:08:34;32.33;;;28.30;;
823;SDS011;373;49.342;8.146;2024-03-07T04:11:02;31.85;;;25.85;;
823;SDS011;373;49.342;8.146;2024-03-07T04:13:30;31.27;;;27.70;;
823;SDS011;373;49.342;8.146;2024-03-07T04:15:57;32.00;;;28.48;;
823;SDS011;373;49.342;8.146;2024-03-07T04:18:24;33.85;;;28.33;;
823;SDS011;373;49.342;8.146;2024-03-07T04:20:52;32.35;;;28.48;;
823;SDS011;373;49.342;8.146;2024-03-07T04:23:20;33.60;;;27.52;;
823;SDS011;373;49.342;8.146;2024-03-07T04:25:47;31.83;;;28.08;;
823;SDS011;373;49.342;8.146;2024-03-07T04:28:15;34.95;;;29.67;;
823;SDS011;373;49.342;8.146;2024-03-07T04:30:42;34.97;;;28.40;;
823;SDS011;373;49.342;8.146;2024-03-07T04:33:09;33.53;;;29.00;;
823;SDS011;373;49.342;8.146;2024-03-07T04:35:36;32.67;;;27.42;;
823;SDS011;373;49.342;8.146;2024-03-07T04:38:03;33.60;;;29.35;;
823;SDS011;373;49.342;8.146;2024-03-07T04:40:36;32.65;;;29.05;;
823;SDS011;373;49.342;8.146;2024-03-07T04:43:04;31.67;;;28.25;;
823;SDS011;373;49.342;8.146;2024-03-07T04:45:31;32.95;;;27.92;;
823;SDS011;373;49.342;8.146;2024-03-07T04:47:58;34.55;;;27.88;;
823;SDS011;373;49.342;8.146;2024-03-07T04:50:25;34.58;;;30.08;;
823;SDS011;373;49.342;8.146;2024-03-07T04:52:52;31.73;;;28.02;;
823;SDS011;373;49.342;8.146;2024-03-07T04:55:19;33.20;;;28.80;;
823;SDS011;373;49.342;8.146;2024-03-07T04:57:47;35.47;;;27.73;;
823;SDS011;373;49.342;8.146;2024-03-07T05:00:14;34.42;;;27.63;;
823;SDS011;373;49.342;8.146;2024-03-07T05:02:45;34.95;;;29.85;;
823;SDS011;373;49.342;8.146;2024-03-07T05:05:13;34.08;;;29.52;;
823;SDS011;373;49.342;8.146;2024-03-07T05:07:40;34.83;;;28.75;;
823;SDS011;373;49.342;8.146;2024-03-07T05:10:07;33.63;;;29.08;;
823;SDS011;373;49.342;8.146;2024-03-07T05:12:34;34.83;;;28.33;;
823;SDS011;373;49.342;8.146;2024-03-07T05:15:03;35.38;;;28.50;;
823;SDS011;373;49.342;8.146;2024-03-07T05:17:31;33.58;;;28.60;;
823;SDS011;373;49.342;8.146;2024-03-07T05:20:00;34.08;;;28.60;;
823;SDS011;373;49.342;8.146;2024-03-07T05:22:28;33.80;;;27.73;;
823;SDS011;373;49.342;8.146;2024-03-07T05:24:55;33.55;;;27.85;;
823;SDS011;373;49.342;8.146;2024-03-07T05:27:24;34.17;;;29.08;;
823;SDS011;373;49.342;8.146;2024-03-07T05:29:52;33.50;;;28.40;;
823;SDS011;373;49.342;8.146;2024-03-07T05:32:22;36.40;;;30.42;;
823;SDS011;373;49.342;8.146;2024-03-07T05:34:50;35.00;;;29.70;;
823;SDS011;373;49.342;8.146;2024-03-07T05:37:18;37.33;;;29.52;;
823;SDS011;373;49.342;8.146;2024-03-07T05:39:46;34.00;;;29.55;;
823;SDS011;373;49.342;8.146;2024-03-07T05:42:13;32.70;;;27.08;;
823;SDS011;373;49.342;8.146;2024-03-07T05:44:41;34.13;;;27.38;;
823;SDS011;373;49.342;8.146;2024-03-07T05:47:08;31.15;;;26.63;;
823;SDS011;373;49.342;8.146;2024-03-07T05:49:36;32.00;;;27.13;;
823;SDS011;373;49.342;8.146;2024-03-07T05:52:04;31.42;;;25.83;;
823;SDS011;373;49.342;8.146;2024-03-07T05:54:32;33.67;;;26.80;;
823;SDS011;373;49.342;8.146;2024-03-07T05:56:59;30.67;;;25.73;;
823;SDS011;373;49.342;8.146;2024-03-07T05:59:26;31.60;;;25.52;;
823;SDS011;373;49.342;8.146;2024-03-07T06:01:56;36.08;;;26.70;;
823;SDS011;373;49.342;8.146;2024-03-07T06:04:23;30.40;;;24.98;;
823;SDS011;373;49.342;8.146;2024-03-07T06:06:51;28.33;;;23.63;;
823;SDS011;373;49.342;8.146;2024-03-07T06:09:19;28.13;;;25.10;;
823;SDS011;373;49.342;8.146;2024-03-07T06:11:47;28.08;;;23.88;;
823;SDS011;373;49.342;8.146;2024-03-07T06:14:15;32.97;;;26.45;;
823;SDS011;373;49.342;8.146;2024-03-07T06:16:43;27.80;;;24.67;;
823;SDS011;373;49.342;8.146;2024-03-07T06:19:10;28.65;;;25.02;;
823;SDS011;373;49.342;8.146;2024-03-07T06:21:38;28.00;;;24.63;;
823;SDS011;373;49.342;8.146;2024-03-07T06:24:08;28.88;;;25.13;;
823;SDS011;373;49.342;8.146;2024-03-07T06:26:36;30.15;;;24.45;;
823;SDS011;373;49.342;8.146;2024-03-07T06:29:11;27.73;;;23.83;;
823;SDS011;373;49.342;8.146;2024-03-07T06:31:38;31.73;;;24.35;;
823;SDS011;373;49.342;8.146;2024-03-07T06:34:06;30.70;;;25.38;;
823;SDS011;373;49.342;8.146;2024-03-07T06:36:34;29.30;;;25.15;;
823;SDS011;373;49.342;8.146;2024-03-07T06:39:01;30.65;;;24.30;;
823;SDS011;373;49.342;8.146;2024-03-07T06:41:31;27.55;;;21.92;;
823;SDS011;373;49.342;8.146;2024-03-07T06:43:59;29.52;;;24.67;;
823;SDS011;373;49.342;8.146;2024-03-07T06:46:26;26.13;;;22.50;;
823;SDS011;373;49.342;8.146;2024-03-07T06:48:53;27.67;;;22.50;;
823;SDS011;373;49.342;8.146;2024-03-07T06:51:21;28.23;;;24.40;;
823;SDS011;373;49.342;8.146;2024-03-07T06:53:50;26.50;;;22.48;;
823;SDS011;373;49.342;8.146;2024-03-07T06:56:17;25.92;;;22.02;;
823;SDS011;373;49.342;8.146;2024-03-07T06:58:45;25.45;;;22.73;;
823;SDS011;373;49.342;8.146;2024-03-07T07:01:13;23.90;;;21.08;;
823;SDS011;373;49.342;8.146;2024-03-07T07:03:41;23.48;;;20.90;;
823;SDS011;373;49.342;8.146;2024-03-07T07:06:09;23.35;;;20.83;;
823;SDS011;373;49.342;8.146;2024-03-07T07:08:36;24.00;;;21.50;;
823;SDS011;373;49.342;8.146;2024-03-07T07:11:04;22.55;;;20.15;;
823;SDS011;373;49.342;8.146;2024-03-07T07:13:31;23.38;;;20.85;;
823;SDS011;373;49.342;8.146;2024-03-07T07:16:00;25.83;;;20.50;;
823;SDS011;373;49.342;8.146;2024-03-07T07:18:26;23.90;;;21.30;;
823;SDS011;373;49.342;8.146;2024-03-07T07:20:53;24.48;;;21.90;;
823;SDS011;373;49.342;8.146;2024-03-07T07:23:21;22.60;;;20.02;;
823;SDS011;373;49.342;8.146;2024-03-07T07:25:48;25.25;;;22.55;;
823;SDS011;373;49.342;8.146;2024-03-07T07:28:15;24.80;;;22.15;;
823;SDS011;373;49.342;8.146;2024-03-07T07:30:42;28.00;;;22.85;;
823;SDS011;373;49.342;8.146;2024-03-07T07:33:11;26.30;;;23.50;;
823;SDS011;373;49.342;8.146;2024-03-07T07:35:38;25.95;;;23.02;;
823;SDS011;373;49.342;8.146;2024-03-07T07:38:05;27.55;;;24.58;;
823;SDS011;373;49.342;8.146;2024-03-07T07:40:35;27.73;;;24.55;;
823;SDS011;373;49.342;8.146;2024-03-07T07:43:03;28.05;;;25.08;;
823;SDS011;373;49.342;8.146;2024-03-07T07:45:32;28.10;;;24.73;;
823;SDS011;373;49.342;8.146;2024-03-07T07:48:07;29.00;;;25.13;;
823;SDS011;373;49.342;8.146;2024-03-07T07:50:51;28.95;;;25.30;;
823;SDS011;373;49.342;8.146;2024-03-07T07:53:21;31.23;;;25.02;;
823;SDS011;373;49.342;8.146;2024-03-07T07:55:50;29.08;;;25.90;;
823;SDS011;373;49.342;8.146;2024-03-07T07:58:18;29.48;;;24.95;;
823;SDS011;373;49.342;8.146;2024-03-07T08:00:45;30.02;;;25.70;;
823;SDS011;373;49.342;8.146;2024-03-07T08:03:14;30.30;;;26.20;;
823;SDS011;373;49.342;8.146;2024-03-07T08:05:43;32.80;;;25.35;;
823;SDS011;373;49.342;8.146;2024-03-07T08:08:12;31.27;;;26.83;;
823;SDS011;373;49.342;8.146;2024-03-07T08:10:41;30.73;;;26.45;;
823;SDS011;373;49.342;8.146;2024-03-07T08:13:11;31.48;;;25.73;;
823;SDS011;373;49.342;8.146;2024-03-07T08:15:38;31.40;;;26.40;;
823;SDS011;373;49.342;8.146;2024-03-07T08:18:06;31.55;;;26.30;;
823;SDS011;373;49.342;8.146;2024-03-07T08:20:33;32.35;;;26.40;;
823;SDS011;373;49.342;8.146;2024-03-07T08:23:02;31.48;;;27.20;;
823;SDS011;373;49.342;8.146;2024-03-07T08:25:31;32.90;;;26.45;;
823;SDS011;373;49.342;8.146;2024-03-07T08:27:58;31.08;;;25.10;;
823;SDS011;373;49.342;8.146;2024-03-07T08:30:26;30.92;;;25.48;;
823;SDS011;373;49.342;8.146;2024-03-07T08:32:54;28.50;;;23.73;;
823;SDS011;373;49.342;8.146;2024-03-07T08:35:22;26.15;;;22.83;;
823;SDS011;373;49.342;8.146;2024-03-07T08:37:50;27.02;;;23.20;;
823;SDS011;373;49.342;8.146;2024-03-07T08:40:19;27.63;;;24.67;;
823;SDS011;373;49.342;8.146;2024-03-07T08:42:48;28.05;;;22.77;;
823;SDS011;373;49.342;8.146;2024-03-07T08:45:16;26.17;;;21.88;;
823;SDS011;373;49.342;8.146;2024-03-07T08:47:44;25.60;;;22.73;;
823;SDS011;373;49.342;8.146;2024-03-07T08:50:13;25.85;;;22.48;;
823;SDS011;373;49.342;8.146;2024-03-07T08:52:43;23.33;;;20.92;;
823;SDS011;373;49.342;8.146;2024-03-07T08:55:12;23.08;;;20.58;;
823;SDS011;373;49.342;8.146;2024-03-07T08:57:40;22.73;;;20.27;;
823;SDS011;373;49.342;8.146;2024-03-07T09:00:10;23.30;;;20.88;;
823;SDS011;373;49.342;8.146;2024-03-07T09:02:48;22.88;;;20.42;;
823;SDS011;373;49.342;8.146;2024-03-07T09:05:17;21.83;;;19.60;;
823;SDS011;373;49.342;8.146;2024-03-07T09:07:45;21.63;;;19.45;;
823;SDS011;373;49.342;8.146;2024-03-07T09:10:12;21.00;;;18.67;;
823;SDS011;373;49.342;8.146;2024-03-07T09:12:40;21.25;;;18.85;;
823;SDS011;373;49.342;8.146;2024-03-07T09:15:07;20.85;;;18.63;;
823;SDS011;373;49.342;8.146;2024-03-07T09:17:37;23.23;;;19.15;;
823;SDS011;373;49.342;8.146;2024-03-07T09:20:04;20.13;;;17.88;;
823;SDS011;373;49.342;8.146;2024-03-07T09:22:34;22.20;;;18.58;;
823;SDS011;373;49.342;8.146;2024-03-07T09:25:01;22.13;;;19.75;;
823;SDS011;373;49.342;8.146;2024-03-07T09:27:28;21.63;;;19.35;;
823;SDS011;373;49.342;8.146;2024-03-07T09:29:55;22.98;;;18.38;;
823;SDS011;373;49.342;8.146;2024-03-07T09:32:23;22.58;;;19.80;;
823;SDS011;373;49.342;8.146;2024-03-07T09:34:51;21.17;;;18.90;;
823;SDS011;373;49.342;8.146;2024-03-07T09:37:18;20.40;;;18.20;;
823;SDS011;373;49.342;8.146;2024-03-07T09:39:49;22.98;;;17.75;;
823;SDS011;373;49.342;8.146;2024-03-07T09:42:16;20.58;;;18.48;;
823;SDS011;373;49.342;8.146;2024-03-07T09:44:44;23.05;;;20.17;;
823;SDS011;373;49.342;8.146;2024-03-07T09:47:12;18.60;;;16.48;;
823;SDS011;373;49.342;8.146;2024-03-07T09:49:40;19.23;;;16.15;;
823;SDS011;373;49.342;8.146;2024-03-07T09:52:09;19.02;;;16.95;;
823;SDS011;373;49.342;8.146;2024-03-07T09:54:38;19.63;;;17.05;;
823;SDS011;373;49.342;8.146;2024-03-07T09:57:06;18.30;;;16.33;;
823;SDS011;373;49.342;8.146;2024-03-07T09:59:34;17.80;;;14.75;;
823;SDS011;373;49.342;8.146;2024-03-07T10:02:04;15.80;;;13.25;;
823;SDS011;373;49.342;8.146;2024-03-07T10:04:37;15.65;;;14.05;;
823;SDS011;373;49.342;8.146;2024-03-07T10:07:10;14.05;;;12.48;;
823;SDS011;373;49.342;8.146;2024-03-07T10:09:39;15.18;;;13.57;;
823;SDS011;373;49.342;8.146;2024-03-07T10:12:07;15.23;;;13.43;;
823;SDS011;373;49.342;8.146;2024-03-07T10:14:37;14.95;;;12.60;;
823;SDS011;373;49.342;8.146;2024-03-07T10:17:05;14.82;;;13.32;;
823;SDS011;373;49.342;8.146;2024-03-07T10:19:35;13.63;;;12.25;;
823;SDS011;373;49.342;8.146;2024-03-07T10:22:02;15.25;;;13.50;;
823;SDS011;373;49.342;8.146;2024-03-07T10:24:33;15.23;;;13.75;;
823;SDS011;373;49.342;8.146;2024-03-07T10:27:00;16.05;;;13.60;;
823;SDS011;373;49.342;8.146;2024-03-07T10:29:27;15.23;;;13.60;;
823;SDS011;373;49.342;8.146;2024-03-07T10:31:54;15.02;;;13.43;;
823;SDS011;373;49.342;8.146;2024-03-07T10:34:21;15.20;;;13.18;;
823;SDS011;373;49.342;8.146;2024-03-07T10:36:51;13.95;;;12.60;;
823;SDS011;373;49.342;8.146;2024-03-07T10:39:19;13.52;;;12.13;;
823;SDS011;373;49.342;8.146;2024-03-07T10:41:49;14.43;;;12.93;;
823;SDS011;373;49.342;8.146;2024-03-07T10:44:19;14.80;;;13.30;;
823;SDS011;373;49.342;8.146;2024-03-07T10:46:51;15.00;;;13.50;;
823;SDS011;373;49.342;8.146;2024-03-07T10:49:19;14.98;;;13.27;;
823;SDS011;373;49.342;8.146;2024-03-07T10:51:53;15.70;;;13.98;;
823;SDS011;373;49.342;8.146;2024-03-07T10:54:30;17.38;;;14.43;;
823;SDS011;373;49.342;8.146;2024-03-07T10:57:11;15.50;;;13.52;;
823;SDS011;373;49.342;8.146;2024-03-07T10:59:49;15.88;;;14.25;;
823;SDS011;373;49.342;8.146;2024-03-07T11:02:20;15.23;;;13.73;;
823;SDS011;373;49.342;8.146;2024-03-07T11:04:55;17.25;;;14.63;;
823;SDS011;373;49.342;8.146;2024-03-07T11:07:24;19.05;;;16.38;;
823;SDS011;373;49.342;8.146;2024-03-07T11:09:53;17.05;;;15.13;;
823;SDS011;373;49.342;8.146;2024-03-07T11:12:23;21.10;;;16.02;;
823;SDS011;373;49.342;8.146;2024-03-07T11:14:53;18.48;;;16.48;;
823;SDS011;373;49.342;8.146;2024-03-07T11:17:21;18.48;;;16.58;;
823;SDS011;373;49.342;8.146;2024-03-07T11:19:49;19.67;;;17.40;;
823;SDS011;373;49.342;8.146;2024-03-07T11:22:29;18.08;;;15.82;;
823;SDS011;373;49.342;8.146;2024-03-07T11:25:01;18.30;;;15.88;;
823;SDS011;373;49.342;8.146;2024-03-07T11:27:34;20.73;;;17.05;;
823;SDS011;373;49.342;8.146;2024-03-07T11:30:04;18.75;;;16.65;;
823;SDS011;373;49.342;8.146;2024-03-07T11:32:34;19.38;;;17.27;;
823;SDS011;373;49.342;8.146;2024-03-07T11:35:11;19.95;;;16.98;;
823;SDS011;373;49.342;8.146;2024-03-07T11:37:40;17.45;;;15.50;;
823;SDS011;373;49.342;8.146;2024-03-07T11:40:11;16.52;;;14.80;;
823;SDS011;373;49.342;8.146;2024-03-07T11:42:47;17.70;;;15.77;;
823;SDS011;373;49.342;8.146;2024-03-07T11:45:15;16.98;;;15.27;;
823;SDS011;373;49.342;8.146;2024-03-07T11:47:50;17.25;;;15.30;;
823;SDS011;373;49.342;8.146;2024-03-07T11:50:23;17.13;;;15.32;;
823;SDS011;373;49.342;8.146;2024-03-07T11:52:51;19.15;;;17.23;;
823;SDS011;373;49.342;8.146;2024-03-07T11:55:20;17.80;;;15.52;;
823;SDS011;373;49.342;8.146;2024-03-07T11:57:51;17.52;;;15.65;;
823;SDS011;373;49.342;8.146;2024-03-07T12:00:24;16.25;;;14.57;;
823;SDS011;373;49.342;8.146;2024-03-07T12:02:59;16.92;;;15.15;;
823;SDS011;373;49.342;8.146;2024-03-07T12:05:32;17.10;;;15.07;;
823;SDS011;373;49.342;8.146;2024-03-07T12:08:00;18.80;;;16.92;;
823;SDS011;373;49.342;8.146;2024-03-07T12:10:34;18.38;;;16.58;;
823;SDS011;373;49.342;8.146;2024-03-07T12:13:07;20.00;;;17.15;;
823;SDS011;373;49.342;8.146;2024-03-07T12:15:36;18.77;;;16.80;;
823;SDS011;373;49.342;8.146;2024-03-07T12:18:05;18.75;;;16.85;;
823;SDS011;373;49.342;8.146;2024-03-07T12:20:35;17.15;;;15.52;;
823;SDS011;373;49.342;8.146;2024-03-07T12:23:03;19.38;;;17.38;;
823;SDS011;373;49.342;8.146;2024-03-07T12:25:34;19.08;;;17.17;;
823;SDS011;373;49.342;8.146;2024-03-07T12:28:02;18.58;;;16.75;;
823;SDS011;373;49.342;8.146;2024-03-07T12:30:33;19.05;;;16.95;;
823;SDS011;373;49.342;8.146;2024-03-07T12:33:03;22.05;;;18.30;;
823;SDS011;373;49.342;8.146;2024-03-07T12:35:32;18.67;;;16.67;;
823;SDS011;373;49.342;8.146;2024-03-07T12:37:59;22.15;;;18.50;;
823;SDS011;373;49.342;8.146;2024-03-07T12:40:29;18.17;;;16.02;;
823;SDS011;373;49.342;8.146;2024-03-07T12:42:59;20.38;;;18.38;;
823;SDS011;373;49.342;8.146;2024-03-07T12:45:28;19.70;;;17.65;;
823;SDS011;373;49.342;8.146;2024-03-07T12:48:00;20.85;;;18.63;;
823;SDS011;373;49.342;8.146;2024-03-07T12:50:29;19.00;;;16.98;;
823;SDS011;373;49.342;8.146;2024-03-07T12:53:00;20.00;;;17.20;;
823;SDS011;373;49.342;8.146;2024-03-07T12:55:31;19.42;;;17.00;;
823;SDS011;373;49.342;8.146;2024-03-07T12:57:58;20.33;;;18.15;;
823;SDS011;373;49.342;8.146;2024-03-07T13:00:25;20.85;;;18.63;;
823;SDS011;373;49.342;8.146;2024-03-07T13:02:55;19.98;;;17.88;;
823;SDS011;373;49.342;8.146;2024-03-07T13:05:24;19.70;;;17.73;;
823;SDS011;373;49.342;8.146;2024-03-07T13:07:51;19.05;;;17.08;;
823;SDS011;373;49.342;8.146;2024-03-07T13:10:18;20.55;;;17.95;;
823;SDS011;373;49.342;8.146;2024-03-07T13:12:45;20.60;;;18.42;;
823;SDS011;373;49.342;8.146;2024-03-07T13:15:14;20.88;;;18.70;;
823;SDS011;373;49.342;8.146;2024-03-07T13:17:41;21.27;;;18.55;;
823;SDS011;373;49.342;8.146;2024-03-07T13:20:09;20.95;;;18.48;;
823;SDS011;373;49.342;8.146;2024-03-07T13:22:41;20.88;;;18.75;;
823;SDS011;373;49.342;8.146;2024-03-07T13:25:13;19.90;;;17.75;;
823;SDS011;373;49.342;8.146;2024-03-07T13:27:43;21.30;;;18.60;;
823;SDS011;373;49.342;8.146;2024-03-07T13:30:20;22.30;;;19.92;;
823;SDS011;373;49.342;8.146;2024-03-07T13:32:51;20.55;;;18.38;;
823;SDS011;373;49.342;8.146;2024-03-07T13:35:19;20.02;;;17.88;;
823;SDS011;373;49.342;8.146;2024-03-07T13:37:48;22.52;;;18.80;;
823;SDS011;373;49.342;8.146;2024-03-07T13:40:16;20.23;;;18.15;;
823;SDS011;373;49.342;8.146;2024-03-07T13:42:53;21.45;;;19.15;;
823;SDS011;373;49.342;8.146;2024-03-07T13:45:22;20.48;;;17.90;;
823;SDS011;373;49.342;8.146;2024-03-07T13:47:52;22.25;;;18.75;;
823;SDS011;373;49.342;8.146;2024-03-07T13:50:21;20.42;;;18.05;;
823;SDS011;373;49.342;8.146;2024-03-07T13:52:51;20.50;;;18.30;;
823;SDS011;373;49.342;8.146;2024-03-07T13:58:37;20.55;;;18.35;;
823;SDS011;373;49.342;8.146;2024-03-07T14:01:28;21.73;;;17.27;;
823;SDS011;373;49.342;8.146;2024-03-07T14:07:30;20.50;;;17.52;;
823;SDS011;373;49.342;8.146;2024-03-07T14:13:24;18.38;;;15.95;;
823;SDS011;373;49.342;8.146;2024-03-07T14:22:18;18.05;;;16.13;;
823;SDS011;373;49.342;8.146;2024-03-07T14:25:11;18.13;;;15.80;;
823;SDS011;373;49.342;8.146;2024-03-07T14:28:16;19.98;;;16.10;;
823;SDS011;373;49.342;8.146;2024-03-07T14:31:04;17.67;;;15.88;;
823;SDS011;373;49.342;8.146;2024-03-07T14:33:47;20.98;;;17.77;;
823;SDS011;373;49.342;8.146;2024-03-07T14:36:19;19.85;;;17.05;;
823;SDS011;373;49.342;8.146;2024-03-07T14:39:02;18.60;;;16.70;;
823;SDS011;373;49.342;8.146;2024-03-07T14:41:40;19.33;;;17.25;;
823;SDS011;373;49.342;8.146;2024-03-07T14:44:14;17.50;;;15.70;;
823;SDS011;373;49.342;8.146;2024-03-07T14:46:43;18.42;;;16.38;;
823;SDS011;373;49.342;8.146;2024-03-07T14:49:14;20.40;;;16.73;;
823;SDS011;373;49.342;8.146;2024-03-07T14:51:43;19.77;;;16.65;;
823;SDS011;373;49.342;8.146;2024-03-07T14:54:12;18.60;;;16.55;;
823;SDS011;373;49.342;8.146;2024-03-07T14:56:39;18.90;;;16.50;;
823;SDS011;373;49.342;8.146;2024-03-07T14:59:06;17.98;;;16.17;;
823;SDS011;373;49.342;8.146;2024-03-07T15:01:35;18.50;;;16.55;;
823;SDS011;373;49.342;8.146;2024-03-07T15:04:04;23.17;;;16.02;;
823;SDS011;373;49.342;8.146;2024-03-07T15:06:33;17.80;;;16.10;;
823;SDS011;373;49.342;8.146;2024-03-07T15:09:00;18.58;;;15.95;;
823;SDS011;373;49.342;8.146;2024-03-07T15:11:29;17.20;;;15.40;;
823;SDS011;373;49.342;8.146;2024-03-07T15:14:00;15.75;;;13.68;;
823;SDS011;373;49.342;8.146;2024-03-07T15:16:29;15.90;;;14.27;;
823;SDS011;373;49.342;8.146;2024-03-07T15:19:01;15.43;;;13.82;;
823;SDS011;373;49.342;8.146;2024-03-07T15:21:28;16.88;;;15.07;;
823;SDS011;373;49.342;8.146;2024-03-07T15:23:55;15.52;;;13.90;;
823;SDS011;373;49.342;8.146;2024-03-07T15:26:23;17.55;;;15.70;;
823;SDS011;373;49.342;8.146;2024-03-07T15:28:50;17.08;;;15.32;;
823;SDS011;373;49.342;8.146;2024-03-07T15:31:17;16.65;;;14.85;;
823;SDS011;373;49.342;8.146;2024-03-07T15:33:46;15.20;;;13.10;;
823;SDS011;373;49.342;8.146;2024-03-07T15:36:15;15.85;;;14.18;;
823;SDS011;373;49.342;8.146;2024-03-07T15:38:43;17.42;;;14.50;;
823;SDS011;373;49.342;8.146;2024-03-07T15:41:10;16.85;;;15.05;;
823;SDS011;373;49.342;8.146;2024-03-07T15:43:38;17.77;;;14.48;;